sensor_id;sensor_type;location;lat;lon;timestamp;P1;durP1;ratioP1;P2;durP2;ratioP2
3567;SDS011;1798;48.486;9.232;2023-04-25T00:00:54;13.27;;;4.10;;
3567;SDS011;1798;48.486;9.232;2023-04-25T00:03:20;11.48;;;5.32;;
3567;SDS011;1798;48.486;9.232;2023-04-25T00:05:47;12.30;;;4.70;;
3567;SDS011;1798;48.486;9.232;2023-04-25T00:08:13;8.82;;;4.30;;
3567;SDS011;1798;48.486;9.232;2023-04-25T00:10:40;10.70;;;4.50;;
3567;SDS011;1798;48.486;9.232;2023-04-25T00:13:07;10.32;;;4.60;;
3567;SDS011;1798;48.486;9.232;2023-04-25T00:15:37;12.50;;;4.70;;
3567;SDS011;1798;48.486;9.232;2023-04-25T00:18:07;11.82;;;4.53;;
3567;SDS011;1798;48.486;9.232;2023-04-25T00:20:35;15.17;;;4.67;;
3567;SDS011;1798;48.486;9.232;2023-04-25T00:23:01;14.45;;;5.55;;
3567;SDS011;1798;48.486;9.232;2023-04-25T00:25:28;10.25;;;4.28;;
3567;SDS011;1798;48.486;9.232;2023-04-25T00:27:55;13.07;;;5.13;;
3567;SDS011;1798;48.486;9.232;2023-04-25T00:30:22;10.80;;;4.65;;
3567;SDS011;1798;48.486;9.232;2023-04-25T00:32:49;12.25;;;4.97;;
3567;SDS011;1798;48.486;9.232;2023-04-25T00:35:16;11.85;;;4.38;;
3567;SDS011;1798;48.486;9.232;2023-04-25T00:37:43;10.95;;;4.80;;
3567;SDS011;1798;48.486;9.232;2023-04-25T00:40:10;10.02;;;4.38;;
3567;SDS011;1798;48.486;9.232;2023-04-25T00:42:37;10.88;;;4.63;;
3567;SDS011;1798;48.486;9.232;2023-04-25T00:45:04;24.33;;;4.90;;
3567;SDS011;1798;48.486;9.232;2023-04-25T00:47:32;11.07;;;5.20;;
3567;SDS011;1798;48.486;9.232;2023-04-25T00:50:01;9.60;;;4.80;;
3567;SDS011;1798;48.486;9.232;2023-04-25T00:52:27;14.27;;;5.40;;
3567;SDS011;1798;48.486;9.232;2023-04-25T00:54:54;12.30;;;5.10;;
3567;SDS011;1798;48.486;9.232;2023-04-25T00:57:21;14.83;;;4.90;;
3567;SDS011;1798;48.486;9.232;2023-04-25T00:59:47;20.17;;;5.80;;
3567;SDS011;1798;48.486;9.232;2023-04-25T01:02:14;12.57;;;5.72;;
3567;SDS011;1798;48.486;9.232;2023-04-25T01:04:41;15.10;;;5.73;;
3567;SDS011;1798;48.486;9.232;2023-04-25T01:07:09;12.93;;;6.10;;
3567;SDS011;1798;48.486;9.232;2023-04-25T01:09:36;11.80;;;5.20;;
3567;SDS011;1798;48.486;9.232;2023-04-25T01:12:03;17.52;;;5.60;;
3567;SDS011;1798;48.486;9.232;2023-04-25T01:14:30;10.93;;;4.70;;
3567;SDS011;1798;48.486;9.232;2023-04-25T01:16:56;15.25;;;6.00;;
3567;SDS011;1798;48.486;9.232;2023-04-25T01:19:23;14.50;;;5.15;;
3567;SDS011;1798;48.486;9.232;2023-04-25T01:21:51;13.07;;;5.00;;
3567;SDS011;1798;48.486;9.232;2023-04-25T01:24:18;13.40;;;5.67;;
3567;SDS011;1798;48.486;9.232;2023-04-25T01:26:45;10.15;;;5.00;;
3567;SDS011;1798;48.486;9.232;2023-04-25T01:29:14;13.60;;;5.43;;
3567;SDS011;1798;48.486;9.232;2023-04-25T01:31:42;12.18;;;5.10;;
3567;SDS011;1798;48.486;9.232;2023-04-25T01:34:09;11.63;;;5.00;;
3567;SDS011;1798;48.486;9.232;2023-04-25T01:36:36;12.07;;;5.03;;
3567;SDS011;1798;48.486;9.232;2023-04-25T01:39:04;16.00;;;5.10;;
3567;SDS011;1798;48.486;9.232;2023-04-25T01:41:31;13.98;;;5.57;;
3567;SDS011;1798;48.486;9.232;2023-04-25T01:43:59;20.13;;;5.80;;
3567;SDS011;1798;48.486;9.232;2023-04-25T01:46:27;11.07;;;5.30;;
3567;SDS011;1798;48.486;9.232;2023-04-25T01:48:53;18.15;;;6.05;;
3567;SDS011;1798;48.486;9.232;2023-04-25T01:51:20;13.45;;;5.35;;
3567;SDS011;1798;48.486;9.232;2023-04-25T01:53:47;11.70;;;4.80;;
3567;SDS011;1798;48.486;9.232;2023-04-25T01:56:15;14.50;;;5.20;;
3567;SDS011;1798;48.486;9.232;2023-04-25T01:58:41;14.80;;;5.07;;
3567;SDS011;1798;48.486;9.232;2023-04-25T02:01:08;10.65;;;5.20;;
3567;SDS011;1798;48.486;9.232;2023-04-25T02:03:36;13.52;;;5.32;;
3567;SDS011;1798;48.486;9.232;2023-04-25T02:06:02;13.23;;;4.73;;
3567;SDS011;1798;48.486;9.232;2023-04-25T02:08:29;15.20;;;5.30;;
3567;SDS011;1798;48.486;9.232;2023-04-25T02:10:56;10.93;;;5.32;;
3567;SDS011;1798;48.486;9.232;2023-04-25T02:13:24;14.77;;;5.68;;
3567;SDS011;1798;48.486;9.232;2023-04-25T02:15:51;13.95;;;5.55;;
3567;SDS011;1798;48.486;9.232;2023-04-25T02:18:18;10.55;;;5.05;;
3567;SDS011;1798;48.486;9.232;2023-04-25T02:20:46;15.98;;;5.65;;
3567;SDS011;1798;48.486;9.232;2023-04-25T02:23:12;22.92;;;5.85;;
3567;SDS011;1798;48.486;9.232;2023-04-25T02:25:40;11.65;;;5.45;;
3567;SDS011;1798;48.486;9.232;2023-04-25T02:28:07;11.60;;;5.47;;
3567;SDS011;1798;48.486;9.232;2023-04-25T02:30:35;11.50;;;5.10;;
3567;SDS011;1798;48.486;9.232;2023-04-25T02:33:02;11.80;;;5.00;;
3567;SDS011;1798;48.486;9.232;2023-04-25T02:35:29;13.73;;;5.00;;
3567;SDS011;1798;48.486;9.232;2023-04-25T02:37:56;12.82;;;4.90;;
3567;SDS011;1798;48.486;9.232;2023-04-25T02:40:23;11.65;;;5.00;;
3567;SDS011;1798;48.486;9.232;2023-04-25T02:42:49;15.82;;;5.70;;
3567;SDS011;1798;48.486;9.232;2023-04-25T02:45:16;12.40;;;5.35;;
3567;SDS011;1798;48.486;9.232;2023-04-25T02:47:45;10.82;;;4.32;;
3567;SDS011;1798;48.486;9.232;2023-04-25T02:50:11;15.07;;;5.50;;
3567;SDS011;1798;48.486;9.232;2023-04-25T02:52:38;16.55;;;5.03;;
3567;SDS011;1798;48.486;9.232;2023-04-25T02:55:05;9.68;;;4.80;;
3567;SDS011;1798;48.486;9.232;2023-04-25T02:57:32;13.18;;;4.97;;
3567;SDS011;1798;48.486;9.232;2023-04-25T02:59:59;13.63;;;5.30;;
3567;SDS011;1798;48.486;9.232;2023-04-25T03:02:25;13.93;;;5.53;;
3567;SDS011;1798;48.486;9.232;2023-04-25T03:04:53;10.65;;;5.03;;
3567;SDS011;1798;48.486;9.232;2023-04-25T03:07:20;16.90;;;4.60;;
3567;SDS011;1798;48.486;9.232;2023-04-25T03:09:47;13.90;;;5.57;;
3567;SDS011;1798;48.486;9.232;2023-04-25T03:12:13;8.80;;;4.32;;
3567;SDS011;1798;48.486;9.232;2023-04-25T03:14:40;13.27;;;4.70;;
3567;SDS011;1798;48.486;9.232;2023-04-25T03:17:07;17.50;;;5.00;;
3567;SDS011;1798;48.486;9.232;2023-04-25T03:19:34;11.55;;;4.53;;
3567;SDS011;1798;48.486;9.232;2023-04-25T03:22:02;10.27;;;4.60;;
3567;SDS011;1798;48.486;9.232;2023-04-25T03:24:29;10.65;;;4.30;;
3567;SDS011;1798;48.486;9.232;2023-04-25T03:26:55;11.95;;;4.90;;
3567;SDS011;1798;48.486;9.232;2023-04-25T03:29:22;13.70;;;5.20;;
3567;SDS011;1798;48.486;9.232;2023-04-25T03:31:51;10.50;;;4.60;;
3567;SDS011;1798;48.486;9.232;2023-04-25T03:34:18;7.90;;;3.70;;
3567;SDS011;1798;48.486;9.232;2023-04-25T03:36:46;13.85;;;5.13;;
3567;SDS011;1798;48.486;9.232;2023-04-25T03:39:16;15.07;;;5.00;;
3567;SDS011;1798;48.486;9.232;2023-04-25T03:41:43;10.20;;;4.30;;
3567;SDS011;1798;48.486;9.232;2023-04-25T03:44:09;11.15;;;4.50;;
3567;SDS011;1798;48.486;9.232;2023-04-25T03:46:36;12.23;;;4.63;;
3567;SDS011;1798;48.486;9.232;2023-04-25T03:49:03;13.25;;;4.20;;
3567;SDS011;1798;48.486;9.232;2023-04-25T03:51:30;14.65;;;4.30;;
3567;SDS011;1798;48.486;9.232;2023-04-25T03:53:56;9.75;;;4.18;;
3567;SDS011;1798;48.486;9.232;2023-04-25T03:56:24;15.23;;;4.72;;
3567;SDS011;1798;48.486;9.232;2023-04-25T03:58:51;9.35;;;4.05;;
3567;SDS011;1798;48.486;9.232;2023-04-25T04:01:17;12.85;;;4.38;;
3567;SDS011;1798;48.486;9.232;2023-04-25T04:03:44;10.63;;;4.60;;
3567;SDS011;1798;48.486;9.232;2023-04-25T04:06:11;15.40;;;4.60;;
3567;SDS011;1798;48.486;9.232;2023-04-25T04:08:38;14.00;;;4.90;;
3567;SDS011;1798;48.486;9.232;2023-04-25T04:11:04;13.95;;;4.25;;
3567;SDS011;1798;48.486;9.232;2023-04-25T04:13:32;10.52;;;4.47;;
3567;SDS011;1798;48.486;9.232;2023-04-25T04:15:59;10.20;;;4.00;;
3567;SDS011;1798;48.486;9.232;2023-04-25T04:18:26;12.77;;;4.30;;
3567;SDS011;1798;48.486;9.232;2023-04-25T04:20:52;16.10;;;4.88;;
3567;SDS011;1798;48.486;9.232;2023-04-25T04:23:19;10.60;;;4.50;;
3567;SDS011;1798;48.486;9.232;2023-04-25T04:25:47;15.30;;;4.60;;
3567;SDS011;1798;48.486;9.232;2023-04-25T04:28:14;11.30;;;4.50;;
3567;SDS011;1798;48.486;9.232;2023-04-25T04:30:42;21.50;;;4.55;;
3567;SDS011;1798;48.486;9.232;2023-04-25T04:33:12;15.63;;;4.65;;
3567;SDS011;1798;48.486;9.232;2023-04-25T04:35:40;11.50;;;4.90;;
3567;SDS011;1798;48.486;9.232;2023-04-25T04:38:07;11.45;;;4.50;;
3567;SDS011;1798;48.486;9.232;2023-04-25T04:40:35;15.70;;;5.05;;
3567;SDS011;1798;48.486;9.232;2023-04-25T04:43:02;15.13;;;5.07;;
3567;SDS011;1798;48.486;9.232;2023-04-25T04:45:29;18.33;;;4.97;;
3567;SDS011;1798;48.486;9.232;2023-04-25T04:47:57;11.07;;;4.50;;
3567;SDS011;1798;48.486;9.232;2023-04-25T04:50:24;9.90;;;4.25;;
3567;SDS011;1798;48.486;9.232;2023-04-25T04:52:51;14.23;;;5.40;;
3567;SDS011;1798;48.486;9.232;2023-04-25T04:55:19;20.20;;;5.20;;
3567;SDS011;1798;48.486;9.232;2023-04-25T04:57:46;17.20;;;5.78;;
3567;SDS011;1798;48.486;9.232;2023-04-25T05:00:13;15.82;;;5.43;;
3567;SDS011;1798;48.486;9.232;2023-04-25T05:02:41;14.75;;;5.25;;
3567;SDS011;1798;48.486;9.232;2023-04-25T05:05:09;13.10;;;5.25;;
3567;SDS011;1798;48.486;9.232;2023-04-25T05:07:35;14.10;;;5.22;;
3567;SDS011;1798;48.486;9.232;2023-04-25T05:10:02;11.48;;;5.30;;
3567;SDS011;1798;48.486;9.232;2023-04-25T05:12:29;13.68;;;5.00;;
3567;SDS011;1798;48.486;9.232;2023-04-25T05:14:56;14.65;;;5.30;;
3567;SDS011;1798;48.486;9.232;2023-04-25T05:17:23;16.02;;;5.22;;
3567;SDS011;1798;48.486;9.232;2023-04-25T05:19:50;15.70;;;5.30;;
3567;SDS011;1798;48.486;9.232;2023-04-25T05:22:18;14.20;;;4.70;;
3567;SDS011;1798;48.486;9.232;2023-04-25T05:24:44;13.40;;;5.63;;
3567;SDS011;1798;48.486;9.232;2023-04-25T05:27:11;10.65;;;4.60;;
3567;SDS011;1798;48.486;9.232;2023-04-25T05:29:38;16.40;;;5.15;;
3567;SDS011;1798;48.486;9.232;2023-04-25T05:32:05;8.60;;;4.50;;
3567;SDS011;1798;48.486;9.232;2023-04-25T05:34:32;8.60;;;4.43;;
3567;SDS011;1798;48.486;9.232;2023-04-25T05:36:59;13.57;;;4.90;;
3567;SDS011;1798;48.486;9.232;2023-04-25T05:39:27;12.70;;;4.93;;
3567;SDS011;1798;48.486;9.232;2023-04-25T05:41:54;11.07;;;4.80;;
3567;SDS011;1798;48.486;9.232;2023-04-25T05:44:21;13.02;;;4.85;;
3567;SDS011;1798;48.486;9.232;2023-04-25T05:46:48;19.03;;;4.90;;
3567;SDS011;1798;48.486;9.232;2023-04-25T05:49:15;15.47;;;5.50;;
3567;SDS011;1798;48.486;9.232;2023-04-25T05:51:41;14.25;;;5.15;;
3567;SDS011;1798;48.486;9.232;2023-04-25T05:54:08;14.10;;;5.10;;
3567;SDS011;1798;48.486;9.232;2023-04-25T05:56:37;12.43;;;5.45;;
3567;SDS011;1798;48.486;9.232;2023-04-25T05:59:03;14.00;;;5.20;;
3567;SDS011;1798;48.486;9.232;2023-04-25T06:01:31;17.02;;;5.20;;
3567;SDS011;1798;48.486;9.232;2023-04-25T06:03:58;16.30;;;4.68;;
3567;SDS011;1798;48.486;9.232;2023-04-25T06:06:24;12.10;;;4.70;;
3567;SDS011;1798;48.486;9.232;2023-04-25T06:08:52;12.48;;;5.35;;
3567;SDS011;1798;48.486;9.232;2023-04-25T06:11:19;13.38;;;5.35;;
3567;SDS011;1798;48.486;9.232;2023-04-25T06:13:47;14.95;;;5.20;;
3567;SDS011;1798;48.486;9.232;2023-04-25T06:16:14;13.82;;;5.00;;
3567;SDS011;1798;48.486;9.232;2023-04-25T06:18:40;17.27;;;4.70;;
3567;SDS011;1798;48.486;9.232;2023-04-25T06:21:07;11.07;;;4.67;;
3567;SDS011;1798;48.486;9.232;2023-04-25T06:23:34;10.27;;;5.20;;
3567;SDS011;1798;48.486;9.232;2023-04-25T06:26:00;13.38;;;4.82;;
3567;SDS011;1798;48.486;9.232;2023-04-25T06:28:27;19.38;;;5.40;;
3567;SDS011;1798;48.486;9.232;2023-04-25T06:30:55;11.60;;;4.50;;
3567;SDS011;1798;48.486;9.232;2023-04-25T06:33:21;11.90;;;4.80;;
3567;SDS011;1798;48.486;9.232;2023-04-25T06:35:49;9.98;;;4.90;;
3567;SDS011;1798;48.486;9.232;2023-04-25T06:38:15;10.63;;;4.80;;
3567;SDS011;1798;48.486;9.232;2023-04-25T06:40:42;11.18;;;4.95;;
3567;SDS011;1798;48.486;9.232;2023-04-25T06:43:09;10.38;;;4.90;;
3567;SDS011;1798;48.486;9.232;2023-04-25T06:45:36;13.15;;;4.57;;
3567;SDS011;1798;48.486;9.232;2023-04-25T06:48:04;8.93;;;4.80;;
3567;SDS011;1798;48.486;9.232;2023-04-25T06:50:31;13.88;;;5.20;;
3567;SDS011;1798;48.486;9.232;2023-04-25T06:52:58;12.38;;;4.90;;
3567;SDS011;1798;48.486;9.232;2023-04-25T06:55:26;11.43;;;5.05;;
3567;SDS011;1798;48.486;9.232;2023-04-25T06:57:53;9.27;;;4.22;;
3567;SDS011;1798;48.486;9.232;2023-04-25T07:00:20;13.00;;;5.10;;
3567;SDS011;1798;48.486;9.232;2023-04-25T07:02:47;11.10;;;4.10;;
3567;SDS011;1798;48.486;9.232;2023-04-25T07:05:15;8.82;;;4.60;;
3567;SDS011;1798;48.486;9.232;2023-04-25T07:07:42;10.67;;;4.70;;
3567;SDS011;1798;48.486;9.232;2023-04-25T07:10:09;12.18;;;5.10;;
3567;SDS011;1798;48.486;9.232;2023-04-25T07:12:36;10.05;;;5.28;;
3567;SDS011;1798;48.486;9.232;2023-04-25T07:15:03;12.10;;;4.70;;
3567;SDS011;1798;48.486;9.232;2023-04-25T07:17:31;13.15;;;5.07;;
3567;SDS011;1798;48.486;9.232;2023-04-25T07:19:59;23.65;;;5.25;;
3567;SDS011;1798;48.486;9.232;2023-04-25T07:22:27;9.32;;;4.70;;
3567;SDS011;1798;48.486;9.232;2023-04-25T07:24:53;12.40;;;4.65;;
3567;SDS011;1798;48.486;9.232;2023-04-25T07:27:21;9.30;;;4.60;;
3567;SDS011;1798;48.486;9.232;2023-04-25T07:29:47;11.65;;;4.30;;
3567;SDS011;1798;48.486;9.232;2023-04-25T07:32:14;8.77;;;4.47;;
3567;SDS011;1798;48.486;9.232;2023-04-25T07:34:41;13.73;;;5.07;;
3567;SDS011;1798;48.486;9.232;2023-04-25T07:37:07;12.25;;;4.70;;
3567;SDS011;1798;48.486;9.232;2023-04-25T07:39:35;11.00;;;5.10;;
3567;SDS011;1798;48.486;9.232;2023-04-25T07:42:02;11.32;;;5.00;;
3567;SDS011;1798;48.486;9.232;2023-04-25T07:44:31;12.10;;;5.32;;
3567;SDS011;1798;48.486;9.232;2023-04-25T07:47:03;12.35;;;4.63;;
3567;SDS011;1798;48.486;9.232;2023-04-25T07:49:30;9.18;;;4.40;;
3567;SDS011;1798;48.486;9.232;2023-04-25T07:51:57;15.80;;;5.50;;
3567;SDS011;1798;48.486;9.232;2023-04-25T07:54:24;10.43;;;4.70;;
3567;SDS011;1798;48.486;9.232;2023-04-25T07:56:52;10.63;;;4.65;;
3567;SDS011;1798;48.486;9.232;2023-04-25T07:59:19;12.18;;;5.55;;
3567;SDS011;1798;48.486;9.232;2023-04-25T08:01:46;17.80;;;5.40;;
3567;SDS011;1798;48.486;9.232;2023-04-25T08:04:13;11.98;;;4.78;;
3567;SDS011;1798;48.486;9.232;2023-04-25T08:06:40;11.10;;;5.10;;
3567;SDS011;1798;48.486;9.232;2023-04-25T08:09:07;20.80;;;5.30;;
3567;SDS011;1798;48.486;9.232;2023-04-25T08:11:35;9.32;;;5.22;;
3567;SDS011;1798;48.486;9.232;2023-04-25T08:14:05;11.90;;;5.18;;
3567;SDS011;1798;48.486;9.232;2023-04-25T08:16:32;14.32;;;5.22;;
3567;SDS011;1798;48.486;9.232;2023-04-25T08:18:58;15.77;;;5.67;;
3567;SDS011;1798;48.486;9.232;2023-04-25T08:21:25;10.07;;;4.90;;
3567;SDS011;1798;48.486;9.232;2023-04-25T08:23:53;13.00;;;5.70;;
3567;SDS011;1798;48.486;9.232;2023-04-25T08:26:19;11.55;;;5.50;;
3567;SDS011;1798;48.486;9.232;2023-04-25T08:28:46;15.80;;;4.93;;
3567;SDS011;1798;48.486;9.232;2023-04-25T08:31:14;12.02;;;4.95;;
3567;SDS011;1798;48.486;9.232;2023-04-25T08:33:41;12.30;;;5.55;;
3567;SDS011;1798;48.486;9.232;2023-04-25T08:36:08;11.60;;;5.13;;
3567;SDS011;1798;48.486;9.232;2023-04-25T08:38:34;11.18;;;5.10;;
3567;SDS011;1798;48.486;9.232;2023-04-25T08:41:01;9.63;;;5.30;;
3567;SDS011;1798;48.486;9.232;2023-04-25T08:43:28;11.02;;;5.25;;
3567;SDS011;1798;48.486;9.232;2023-04-25T08:45:56;9.70;;;4.87;;
3567;SDS011;1798;48.486;9.232;2023-04-25T08:48:27;11.88;;;5.72;;
3567;SDS011;1798;48.486;9.232;2023-04-25T08:50:55;9.57;;;5.45;;
3567;SDS011;1798;48.486;9.232;2023-04-25T08:53:25;12.52;;;5.70;;
3567;SDS011;1798;48.486;9.232;2023-04-25T08:55:53;13.82;;;6.00;;
3567;SDS011;1798;48.486;9.232;2023-04-25T08:58:20;8.47;;;4.43;;
3567;SDS011;1798;48.486;9.232;2023-04-25T09:00:48;10.05;;;4.75;;
3567;SDS011;1798;48.486;9.232;2023-04-25T09:03:15;10.45;;;5.35;;
3567;SDS011;1798;48.486;9.232;2023-04-25T09:05:43;11.52;;;4.90;;
3567;SDS011;1798;48.486;9.232;2023-04-25T09:08:10;10.20;;;5.38;;
3567;SDS011;1798;48.486;9.232;2023-04-25T09:10:37;9.20;;;5.20;;
3567;SDS011;1798;48.486;9.232;2023-04-25T09:13:05;8.77;;;5.18;;
3567;SDS011;1798;48.486;9.232;2023-04-25T09:15:35;10.25;;;5.00;;
3567;SDS011;1798;48.486;9.232;2023-04-25T09:18:13;9.52;;;5.55;;
3567;SDS011;1798;48.486;9.232;2023-04-25T09:20:41;10.90;;;5.80;;
3567;SDS011;1798;48.486;9.232;2023-04-25T09:23:10;13.15;;;5.53;;
3567;SDS011;1798;48.486;9.232;2023-04-25T09:25:37;11.77;;;5.57;;
3567;SDS011;1798;48.486;9.232;2023-04-25T09:28:05;10.10;;;5.00;;
3567;SDS011;1798;48.486;9.232;2023-04-25T09:30:33;11.35;;;5.30;;
3567;SDS011;1798;48.486;9.232;2023-04-25T09:33:04;11.15;;;4.90;;
3567;SDS011;1798;48.486;9.232;2023-04-25T09:35:34;10.57;;;5.78;;
3567;SDS011;1798;48.486;9.232;2023-04-25T09:38:06;9.65;;;5.25;;
3567;SDS011;1798;48.486;9.232;2023-04-25T09:40:35;8.10;;;4.88;;
3567;SDS011;1798;48.486;9.232;2023-04-25T09:43:08;9.00;;;4.00;;
3567;SDS011;1798;48.486;9.232;2023-04-25T09:45:40;11.55;;;5.50;;
3567;SDS011;1798;48.486;9.232;2023-04-25T09:48:11;11.30;;;4.63;;
3567;SDS011;1798;48.486;9.232;2023-04-25T09:50:38;6.90;;;3.63;;
3567;SDS011;1798;48.486;9.232;2023-04-25T09:53:05;8.25;;;3.90;;
3567;SDS011;1798;48.486;9.232;2023-04-25T09:55:32;11.57;;;5.57;;
3567;SDS011;1798;48.486;9.232;2023-04-25T09:58:03;10.52;;;4.30;;
3567;SDS011;1798;48.486;9.232;2023-04-25T10:00:32;8.20;;;4.60;;
3567;SDS011;1798;48.486;9.232;2023-04-25T10:03:00;9.43;;;5.10;;
3567;SDS011;1798;48.486;9.232;2023-04-25T10:05:28;8.75;;;3.60;;
3567;SDS011;1798;48.486;9.232;2023-04-25T10:07:56;8.40;;;4.25;;
3567;SDS011;1798;48.486;9.232;2023-04-25T10:10:23;10.43;;;5.10;;
3567;SDS011;1798;48.486;9.232;2023-04-25T10:12:54;8.98;;;4.40;;
3567;SDS011;1798;48.486;9.232;2023-04-25T10:15:21;9.18;;;3.58;;
3567;SDS011;1798;48.486;9.232;2023-04-25T10:17:48;11.90;;;4.40;;
3567;SDS011;1798;48.486;9.232;2023-04-25T10:20:15;8.57;;;4.45;;
3567;SDS011;1798;48.486;9.232;2023-04-25T10:22:44;8.55;;;4.53;;
3567;SDS011;1798;48.486;9.232;2023-04-25T10:25:13;9.30;;;4.67;;
3567;SDS011;1798;48.486;9.232;2023-04-25T10:27:41;9.40;;;3.80;;
3567;SDS011;1798;48.486;9.232;2023-04-25T10:30:13;10.48;;;4.68;;
3567;SDS011;1798;48.486;9.232;2023-04-25T10:32:41;8.88;;;4.55;;
3567;SDS011;1798;48.486;9.232;2023-04-25T10:35:12;8.55;;;4.55;;
3567;SDS011;1798;48.486;9.232;2023-04-25T10:40:29;8.85;;;4.00;;
3567;SDS011;1798;48.486;9.232;2023-04-25T10:43:32;12.00;;;4.70;;
3567;SDS011;1798;48.486;9.232;2023-04-25T10:46:13;9.07;;;4.37;;
3567;SDS011;1798;48.486;9.232;2023-04-25T10:48:48;10.45;;;4.10;;
3567;SDS011;1798;48.486;9.232;2023-04-25T10:51:16;9.02;;;4.13;;
3567;SDS011;1798;48.486;9.232;2023-04-25T10:53:44;9.98;;;4.22;;
3567;SDS011;1798;48.486;9.232;2023-04-25T10:56:12;7.30;;;3.60;;
3567;SDS011;1798;48.486;9.232;2023-04-25T10:58:45;6.50;;;3.50;;
3567;SDS011;1798;48.486;9.232;2023-04-25T11:01:12;7.20;;;4.32;;
3567;SDS011;1798;48.486;9.232;2023-04-25T11:03:42;7.28;;;3.90;;
3567;SDS011;1798;48.486;9.232;2023-04-25T11:06:12;8.23;;;4.30;;
3567;SDS011;1798;48.486;9.232;2023-04-25T11:08:47;9.13;;;4.65;;
3567;SDS011;1798;48.486;9.232;2023-04-25T11:11:14;7.97;;;4.22;;
3567;SDS011;1798;48.486;9.232;2023-04-25T11:13:42;9.48;;;3.72;;
3567;SDS011;1798;48.486;9.232;2023-04-25T11:16:10;9.48;;;3.83;;
3567;SDS011;1798;48.486;9.232;2023-04-25T11:18:37;7.82;;;3.60;;
3567;SDS011;1798;48.486;9.232;2023-04-25T11:21:03;6.67;;;3.47;;
3567;SDS011;1798;48.486;9.232;2023-04-25T11:23:31;8.52;;;3.95;;
3567;SDS011;1798;48.486;9.232;2023-04-25T11:25:57;9.85;;;4.20;;
3567;SDS011;1798;48.486;9.232;2023-04-25T11:28:26;8.20;;;4.32;;
3567;SDS011;1798;48.486;9.232;2023-04-25T11:30:53;8.60;;;3.80;;
3567;SDS011;1798;48.486;9.232;2023-04-25T11:33:23;8.70;;;4.00;;
3567;SDS011;1798;48.486;9.232;2023-04-25T11:35:52;6.25;;;2.90;;
3567;SDS011;1798;48.486;9.232;2023-04-25T11:38:20;7.32;;;3.55;;
3567;SDS011;1798;48.486;9.232;2023-04-25T11:40:49;7.63;;;4.28;;
3567;SDS011;1798;48.486;9.232;2023-04-25T11:43:17;7.60;;;3.80;;
3567;SDS011;1798;48.486;9.232;2023-04-25T11:45:45;7.55;;;3.90;;
3567;SDS011;1798;48.486;9.232;2023-04-25T11:48:12;7.93;;;3.75;;
3567;SDS011;1798;48.486;9.232;2023-04-25T11:50:40;7.15;;;2.60;;
3567;SDS011;1798;48.486;9.232;2023-04-25T11:53:07;8.88;;;4.50;;
3567;SDS011;1798;48.486;9.232;2023-04-25T11:55:33;6.97;;;3.77;;
3567;SDS011;1798;48.486;9.232;2023-04-25T11:58:01;8.27;;;3.63;;
3567;SDS011;1798;48.486;9.232;2023-04-25T12:00:28;8.70;;;3.03;;
3567;SDS011;1798;48.486;9.232;2023-04-25T12:02:55;8.73;;;3.45;;
3567;SDS011;1798;48.486;9.232;2023-04-25T12:05:24;11.43;;;3.00;;
3567;SDS011;1798;48.486;9.232;2023-04-25T12:07:53;7.10;;;3.40;;
3567;SDS011;1798;48.486;9.232;2023-04-25T12:10:20;8.70;;;4.30;;
3567;SDS011;1798;48.486;9.232;2023-04-25T12:12:47;7.65;;;3.60;;
3567;SDS011;1798;48.486;9.232;2023-04-25T12:15:15;8.25;;;3.80;;
3567;SDS011;1798;48.486;9.232;2023-04-25T12:17:45;6.65;;;3.38;;
3567;SDS011;1798;48.486;9.232;2023-04-25T12:20:12;6.25;;;3.33;;
3567;SDS011;1798;48.486;9.232;2023-04-25T12:22:40;7.40;;;3.55;;
3567;SDS011;1798;48.486;9.232;2023-04-25T12:25:11;7.50;;;3.70;;
3567;SDS011;1798;48.486;9.232;2023-04-25T12:27:38;6.30;;;3.40;;
3567;SDS011;1798;48.486;9.232;2023-04-25T12:30:07;7.85;;;3.80;;
3567;SDS011;1798;48.486;9.232;2023-04-25T12:32:35;7.10;;;3.90;;
3567;SDS011;1798;48.486;9.232;2023-04-25T12:35:03;6.97;;;2.90;;
3567;SDS011;1798;48.486;9.232;2023-04-25T12:37:30;7.18;;;2.50;;
3567;SDS011;1798;48.486;9.232;2023-04-25T12:39:57;6.60;;;2.50;;
3567;SDS011;1798;48.486;9.232;2023-04-25T12:42:25;6.00;;;2.80;;
3567;SDS011;1798;48.486;9.232;2023-04-25T12:44:52;6.53;;;3.30;;
3567;SDS011;1798;48.486;9.232;2023-04-25T12:47:18;6.70;;;2.58;;
3567;SDS011;1798;48.486;9.232;2023-04-25T12:49:46;6.32;;;2.70;;
3567;SDS011;1798;48.486;9.232;2023-04-25T12:52:12;6.50;;;2.90;;
3567;SDS011;1798;48.486;9.232;2023-04-25T12:54:39;8.07;;;3.20;;
3567;SDS011;1798;48.486;9.232;2023-04-25T12:57:06;7.27;;;3.60;;
3567;SDS011;1798;48.486;9.232;2023-04-25T12:59:34;6.63;;;3.50;;
3567;SDS011;1798;48.486;9.232;2023-04-25T13:02:00;6.32;;;2.95;;
3567;SDS011;1798;48.486;9.232;2023-04-25T13:04:27;7.35;;;2.90;;
3567;SDS011;1798;48.486;9.232;2023-04-25T13:06:54;6.18;;;3.10;;
3567;SDS011;1798;48.486;9.232;2023-04-25T13:09:21;6.35;;;2.70;;
3567;SDS011;1798;48.486;9.232;2023-04-25T13:11:48;6.28;;;2.90;;
3567;SDS011;1798;48.486;9.232;2023-04-25T13:14:14;6.20;;;2.70;;
3567;SDS011;1798;48.486;9.232;2023-04-25T13:16:42;8.07;;;2.80;;
3567;SDS011;1798;48.486;9.232;2023-04-25T13:19:09;8.00;;;2.75;;
3567;SDS011;1798;48.486;9.232;2023-04-25T13:21:37;8.40;;;3.20;;
3567;SDS011;1798;48.486;9.232;2023-04-25T13:24:04;12.50;;;2.90;;
3567;SDS011;1798;48.486;9.232;2023-04-25T13:26:31;10.50;;;3.40;;
3567;SDS011;1798;48.486;9.232;2023-04-25T13:28:58;6.90;;;2.95;;
3567;SDS011;1798;48.486;9.232;2023-04-25T13:31:25;7.18;;;2.65;;
3567;SDS011;1798;48.486;9.232;2023-04-25T13:33:53;8.98;;;3.25;;
3567;SDS011;1798;48.486;9.232;2023-04-25T13:36:20;5.53;;;2.60;;
3567;SDS011;1798;48.486;9.232;2023-04-25T13:38:47;6.82;;;3.30;;
3567;SDS011;1798;48.486;9.232;2023-04-25T13:41:14;8.68;;;3.40;;
3567;SDS011;1798;48.486;9.232;2023-04-25T13:43:43;9.20;;;3.30;;
3567;SDS011;1798;48.486;9.232;2023-04-25T13:46:11;9.05;;;3.20;;
3567;SDS011;1798;48.486;9.232;2023-04-25T13:48:40;7.82;;;3.20;;
3567;SDS011;1798;48.486;9.232;2023-04-25T13:51:12;7.85;;;3.05;;
3567;SDS011;1798;48.486;9.232;2023-04-25T13:53:40;7.20;;;2.90;;
3567;SDS011;1798;48.486;9.232;2023-04-25T13:56:07;6.50;;;2.80;;
3567;SDS011;1798;48.486;9.232;2023-04-25T13:58:34;10.20;;;3.28;;
3567;SDS011;1798;48.486;9.232;2023-04-25T14:01:00;6.72;;;3.08;;
3567;SDS011;1798;48.486;9.232;2023-04-25T14:03:28;5.90;;;2.60;;
3567;SDS011;1798;48.486;9.232;2023-04-25T14:05:55;7.20;;;3.13;;
3567;SDS011;1798;48.486;9.232;2023-04-25T14:08:23;6.55;;;3.30;;
3567;SDS011;1798;48.486;9.232;2023-04-25T14:10:50;16.00;;;3.88;;
3567;SDS011;1798;48.486;9.232;2023-04-25T14:13:17;7.45;;;3.28;;
3567;SDS011;1798;48.486;9.232;2023-04-25T14:15:44;7.70;;;3.58;;
3567;SDS011;1798;48.486;9.232;2023-04-25T14:18:10;7.10;;;3.70;;
3567;SDS011;1798;48.486;9.232;2023-04-25T14:20:37;9.10;;;3.70;;
3567;SDS011;1798;48.486;9.232;2023-04-25T14:23:03;7.55;;;3.80;;
3567;SDS011;1798;48.486;9.232;2023-04-25T14:25:31;7.88;;;3.80;;
3567;SDS011;1798;48.486;9.232;2023-04-25T14:27:58;10.02;;;3.90;;
3567;SDS011;1798;48.486;9.232;2023-04-25T14:30:26;7.30;;;3.67;;
3567;SDS011;1798;48.486;9.232;2023-04-25T14:32:52;8.00;;;3.83;;
3567;SDS011;1798;48.486;9.232;2023-04-25T14:35:20;8.25;;;3.72;;
3567;SDS011;1798;48.486;9.232;2023-04-25T14:37:47;7.20;;;3.40;;
3567;SDS011;1798;48.486;9.232;2023-04-25T14:40:13;10.00;;;3.50;;
3567;SDS011;1798;48.486;9.232;2023-04-25T14:42:43;6.90;;;3.60;;
3567;SDS011;1798;48.486;9.232;2023-04-25T14:45:10;9.10;;;3.70;;
3567;SDS011;1798;48.486;9.232;2023-04-25T14:47:37;8.85;;;4.07;;
3567;SDS011;1798;48.486;9.232;2023-04-25T14:50:04;7.70;;;3.97;;
3567;SDS011;1798;48.486;9.232;2023-04-25T14:52:32;8.20;;;3.83;;
3567;SDS011;1798;48.486;9.232;2023-04-25T14:54:59;8.48;;;4.30;;
3567;SDS011;1798;48.486;9.232;2023-04-25T14:57:29;7.57;;;4.10;;
3567;SDS011;1798;48.486;9.232;2023-04-25T14:59:58;10.02;;;3.97;;
3567;SDS011;1798;48.486;9.232;2023-04-25T15:02:24;13.93;;;4.07;;
3567;SDS011;1798;48.486;9.232;2023-04-25T15:04:52;7.88;;;4.38;;
3567;SDS011;1798;48.486;9.232;2023-04-25T15:07:19;9.10;;;4.50;;
3567;SDS011;1798;48.486;9.232;2023-04-25T15:09:46;8.75;;;4.60;;
3567;SDS011;1798;48.486;9.232;2023-04-25T15:12:13;10.00;;;4.85;;